< < Back
Terminal Aerodrome Forecast


Current Version              Previous Versions:   1  2  3  4  5  6  7  8  9  

Terminal Aerodrome Forecast

164
FTUS44 KMRX 110531
TAFTYS
TAF
KTYS 110531Z 1106/1206 22005KT P6SM BKN040
     FM111700 VRB04KT P6SM SCT040 BKN200=

Latest METAR

621
SAUS80 KWBC 120900 RRA
MTRTYS
METAR KTYS 120853Z 00000KT 10SM OVC100 M01/M07 A3015 RMK AO2 SLP215
T10061067 56014


USA.gov is the U.S. government's official web portal to all federal, state and local government web resources and services.